Time;durP1;ratioP1;P1;durP2;ratioP2;P2;SDS_P1;SDS_P2;PMS_P1;PMS_P2;Temp;Humidity;BMP_temperature;BMP_pressure;BME280_temperature;BME280_humidity;BME280_pressure;Samples;Min_cycle;Max_cycle;Signal;HPM_P1;HPM_P2
2022/05/09 00:00:27;;;;;;;4.97;4.10;;;;;21.10;101550.00;;;;2077588;28;20304;-48
2022/05/09 00:01:28;;;;;;;5.30;4.40;;;;;21.10;101546.00;;;;2077435;28;20217;-49
2022/05/09 00:02:28;;;;;;;5.77;4.80;;;;;21.10;101548.00;;;;2076962;28;20468;-48
2022/05/09 00:03:28;;;;;;;5.33;4.30;;;;;21.10;101548.00;;;;2078361;28;20221;-48
2022/05/09 00:04:29;;;;;;;5.70;4.20;;;;;21.10;101544.00;;;;2076538;28;20210;-48
2022/05/09 00:05:29;;;;;;;5.53;4.70;;;;;21.10;101544.00;;;;2069994;28;20229;-47
2022/05/09 00:06:29;;;;;;;7.17;4.90;;;;;21.10;101543.00;;;;2070189;28;20207;-48
2022/05/09 00:07:30;;;;;;;6.37;4.47;;;;;21.10;101535.00;;;;2070526;28;20202;-48
2022/05/09 00:08:30;;;;;;;8.37;4.83;;;;;21.10;101544.00;;;;2069952;28;20241;-48
2022/05/09 00:09:31;;;;;;;5.43;4.20;;;;;21.10;101543.00;;;;2067956;28;20206;-49
2022/05/09 00:10:31;;;;;;;7.10;4.70;;;;;21.10;101547.00;;;;2069838;28;20314;-48
2022/05/09 00:11:32;;;;;;;7.30;4.40;;;;;21.10;101542.00;;;;2069936;28;20450;-48
2022/05/09 00:12:32;;;;;;;8.20;4.63;;;;;21.10;101542.00;;;;2070460;28;20210;-49
2022/05/09 00:13:33;;;;;;;5.20;4.40;;;;;21.10;101549.00;;;;2070038;28;20217;-49
2022/05/09 00:14:33;;;;;;;6.90;4.50;;;;;21.10;101554.00;;;;2070453;28;20218;-48
2022/05/09 00:15:33;;;;;;;5.90;4.37;;;;;21.10;101546.00;;;;2069808;28;20368;-48
2022/05/09 00:16:34;;;;;;;5.43;4.17;;;;;21.10;101548.00;;;;2070499;28;20252;-48
2022/05/09 00:17:34;;;;;;;4.43;3.83;;;;;21.10;101548.00;;;;2070382;28;20213;-47
2022/05/09 00:18:34;;;;;;;5.63;3.87;;;;;21.10;101541.00;;;;2070257;28;20225;-48
2022/05/09 00:19:35;;;;;;;5.40;4.40;;;;;21.10;101549.00;;;;2070335;28;20221;-48
2022/05/09 00:20:35;;;;;;;8.90;4.90;;;;;21.10;101540.00;;;;2070458;28;20987;-48
2022/05/09 00:21:37;;;;;;;5.67;3.70;;;;;21.00;101546.00;;;;2070668;28;20238;-48
2022/05/09 00:22:49;;;;;;;4.80;4.05;;;;;21.00;101546.00;;;;2070608;28;20753;-48
2022/05/09 00:23:51;;;;;;;6.07;4.15;;;;;21.10;101548.00;;;;2070436;28;20222;-48
2022/05/09 00:24:51;;;;;;;5.03;3.95;;;;;21.00;101544.00;;;;2077111;28;20267;-48
2022/05/09 00:25:52;;;;;;;4.67;4.20;;;;;21.00;101549.00;;;;2077726;28;20217;-48
2022/05/09 00:26:52;;;;;;;6.40;4.00;;;;;21.00;101561.00;;;;2078558;28;20262;-48
2022/05/09 00:27:53;;;;;;;5.23;4.60;;;;;21.00;101554.00;;;;2078674;28;20224;-48
2022/05/09 00:28:53;;;;;;;5.97;3.83;;;;;21.00;101539.00;;;;2072302;28;20240;-48
2022/05/09 00:29:54;;;;;;;4.97;3.50;;;;;21.00;101546.00;;;;2070567;28;20225;-48
2022/05/09 00:30:54;;;;;;;4.33;3.80;;;;;21.00;101546.00;;;;2074332;28;20252;-48
2022/05/09 00:31:56;;;;;;;5.17;3.60;;;;;21.00;101545.00;;;;2077281;28;20457;-48
2022/05/09 00:32:57;;;;;;;5.03;3.97;;;;;21.00;101541.00;;;;2070740;28;20218;-48
2022/05/09 00:33:57;;;;;;;4.97;3.97;;;;;21.00;101544.00;;;;2069218;28;20230;-48
2022/05/09 00:34:57;;;;;;;6.27;4.43;;;;;21.00;101541.00;;;;2073900;28;20298;-48
2022/05/09 00:35:58;;;;;;;4.37;3.47;;;;;21.00;101543.00;;;;2077389;28;20302;-48
2022/05/09 00:36:59;;;;;;;4.57;3.80;;;;;21.00;101534.00;;;;2075441;28;20209;-47
2022/05/09 00:38:00;;;;;;;3.55;3.25;;;;;21.00;101536.00;;;;2070324;28;20213;-50
2022/05/09 00:39:01;;;;;;;4.40;3.70;;;;;21.00;101539.00;;;;2069074;28;20634;-53
2022/05/09 00:40:01;;;;;;;3.93;3.00;;;;;21.00;101541.00;;;;2069328;28;20214;-47
2022/05/09 00:42:21;;;;;;;3.63;3.33;;;;;21.00;101543.00;;;;2075827;28;20220;-48
2022/05/09 00:43:29;;;;;;;5.70;3.27;;;;;21.00;101538.00;;;;2077241;28;20299;-49
2022/05/09 00:44:30;;;;;;;5.28;3.90;;;;;21.00;101542.00;;;;2069505;28;20210;-48
2022/05/09 00:45:30;;;;;;;4.27;3.80;;;;;21.00;101539.00;;;;2076374;28;20690;-48
2022/05/09 00:46:30;;;;;;;4.33;3.50;;;;;21.00;101545.00;;;;2077816;28;20613;-48
2022/05/09 00:47:31;;;;;;;4.43;3.40;;;;;21.00;101540.00;;;;2065159;28;20673;-48
2022/05/09 00:48:32;;;;;;;5.53;3.90;;;;;21.00;101544.00;;;;2063921;28;20798;-53
2022/05/09 00:49:35;;;;;;;4.40;3.00;;;;;21.00;101544.00;;;;2069922;28;20260;-50
2022/05/09 00:50:35;;;;;;;4.50;3.38;;;;;21.00;101549.00;;;;2069374;28;20300;-48
2022/05/09 00:51:35;;;;;;;4.80;3.40;;;;;21.00;101543.00;;;;2068755;28;20241;-48
2022/05/09 00:52:43;;;;;;;4.63;3.73;;;;;21.00;101547.00;;;;2069033;28;20276;-47
2022/05/09 00:53:43;;;;;;;4.93;3.63;;;;;21.00;101549.00;;;;2068316;28;20812;-49
2022/05/09 00:54:46;;;;;;;5.07;3.90;;;;;21.00;101540.00;;;;2053417;28;20290;-48
2022/05/09 00:55:49;;;;;;;4.68;3.13;;;;;21.00;101528.00;;;;2068367;28;20213;-48
2022/05/09 00:56:58;;;;;;;3.95;3.40;;;;;21.00;101539.00;;;;2068554;28;20245;-48
2022/05/09 00:58:04;;;;;;;5.40;3.20;;;;;21.00;101542.00;;;;2074259;28;20226;-48
2022/05/09 00:59:07;;;;;;;3.85;3.53;;;;;21.00;101537.00;;;;2075412;28;20316;-48
2022/05/09 01:00:13;;;;;;;5.13;3.88;;;;;21.00;101529.00;;;;2076739;28;20308;-48
2022/05/09 01:01:14;;;;;;;5.65;3.35;;;;;21.00;101520.00;;;;2077146;28;20240;-47
2022/05/09 01:02:15;;;;;;;3.90;3.50;;;;;21.00;101537.00;;;;2068736;28;20218;-47
2022/05/09 01:03:18;;;;;;;4.60;3.90;;;;;21.00;101526.00;;;;2061074;28;20214;-48
2022/05/09 01:04:21;;;;;;;3.53;3.22;;;;;21.00;101526.00;;;;2061349;28;20462;-47
2022/05/09 01:05:22;;;;;;;4.68;3.75;;;;;21.00;101527.00;;;;2061018;28;20218;-48
2022/05/09 01:06:22;;;;;;;3.53;3.20;;;;;21.00;101534.00;;;;2069095;28;20633;-47
2022/05/09 01:07:22;;;;;;;3.90;3.37;;;;;21.00;101537.00;;;;2060899;28;20211;-48
2022/05/09 01:08:23;;;;;;;3.80;3.20;;;;;21.00;101534.00;;;;2061980;28;20317;-48
2022/05/09 01:09:25;;;;;;;4.77;3.67;;;;;21.00;101530.00;;;;2077362;28;20213;-48
2022/05/09 01:10:30;;;;;;;4.20;3.33;;;;;20.90;101528.00;;;;2076921;28;20309;-48
2022/05/09 01:11:30;;;;;;;5.95;3.30;;;;;21.00;101533.00;;;;2077910;28;20237;-48
2022/05/09 01:12:32;;;;;;;4.93;3.33;;;;;21.00;101537.00;;;;2061406;28;20295;-49
2022/05/09 01:13:34;;;;;;;4.15;3.50;;;;;20.90;101537.00;;;;2061834;28;20377;-48
2022/05/09 01:14:34;;;;;;;3.65;3.15;;;;;20.90;101537.00;;;;2061500;28;20242;-48
2022/05/09 01:15:35;;;;;;;3.60;2.67;;;;;20.90;101532.00;;;;2068898;28;20737;-49
2022/05/09 01:16:35;;;;;;;5.10;3.20;;;;;20.90;101532.00;;;;2069523;28;20723;-48
2022/05/09 01:17:39;;;;;;;6.13;3.57;;;;;20.90;101537.00;;;;2069766;28;20210;-48
2022/05/09 01:18:39;;;;;;;4.47;3.20;;;;;20.90;101532.00;;;;2078175;28;20213;-47
2022/05/09 01:19:42;;;;;;;4.13;3.27;;;;;20.90;101535.00;;;;2077800;28;20213;-47
2022/05/09 01:20:43;;;;;;;4.50;3.50;;;;;20.90;101533.00;;;;2069799;28;20218;-48
2022/05/09 01:21:43;;;;;;;3.53;3.22;;;;;20.90;101525.00;;;;2077757;28;20225;-48
2022/05/09 01:22:44;;;;;;;3.87;3.50;;;;;20.90;101527.00;;;;2077499;28;20206;-48
2022/05/09 01:23:44;;;;;;;6.60;3.80;;;;;20.90;101531.00;;;;2077822;28;20408;-48
2022/05/09 01:24:44;;;;;;;3.80;3.23;;;;;20.90;101525.00;;;;2078193;28;20276;-48
2022/05/09 01:25:45;;;;;;;3.50;3.07;;;;;20.90;101528.00;;;;2077594;28;20213;-48
2022/05/09 01:26:45;;;;;;;4.20;2.97;;;;;20.90;101528.00;;;;2078329;28;20213;-48
2022/05/09 01:27:46;;;;;;;5.67;4.00;;;;;20.90;101540.00;;;;2078094;28;20585;-49
2022/05/09 01:28:47;;;;;;;4.65;3.80;;;;;20.90;101526.00;;;;2078262;28;20753;-48
2022/05/09 01:29:54;;;;;;;6.07;3.33;;;;;20.90;101523.00;;;;2072515;28;20226;-48
2022/05/09 01:30:59;;;;;;;5.22;3.15;;;;;20.90;101521.00;;;;2077137;28;20913;-48
2022/05/09 01:31:59;;;;;;;5.90;3.75;;;;;20.90;101522.00;;;;2069680;28;20556;-48
2022/05/09 01:33:03;;;;;;;3.30;3.00;;;;;20.90;101523.00;;;;2068740;28;20312;-48
2022/05/09 01:34:04;;;;;;;5.68;3.40;;;;;20.90;101519.00;;;;2069364;28;20215;-48
2022/05/09 01:35:07;;;;;;;4.03;3.00;;;;;20.90;101529.00;;;;2060982;28;20223;-48
2022/05/09 01:36:14;;;;;;;4.50;3.00;;;;;20.90;101517.00;;;;2068440;28;20218;-48
2022/05/09 01:37:14;;;;;;;8.50;3.30;;;;;20.90;101519.00;;;;2068812;28;20214;-47
2022/05/09 01:38:17;;;;;;;4.83;3.30;;;;;20.90;101517.00;;;;2069481;28;21083;-47
2022/05/09 01:39:17;;;;;;;3.75;2.90;;;;;20.90;101518.00;;;;2069472;28;20225;-48
2022/05/09 01:40:18;;;;;;;3.97;3.00;;;;;20.90;101520.00;;;;2069601;28;20215;-48
2022/05/09 01:41:18;;;;;;;4.10;3.50;;;;;20.90;101523.00;;;;2069551;28;20219;-47
2022/05/09 01:42:18;;;;;;;4.37;3.20;;;;;20.90;101517.00;;;;2069381;28;20220;-48
2022/05/09 01:43:43;;;;;;;4.03;3.50;;;;;20.90;101522.00;;;;2068886;28;20221;-48
2022/05/09 01:44:44;;;;;;;3.25;2.95;;;;;20.90;101516.00;;;;2073242;28;20233;-48
2022/05/09 01:45:44;;;;;;;4.07;3.00;;;;;20.90;101525.00;;;;2076546;28;20268;-47
2022/05/09 01:49:30;;;;;;;4.22;3.40;;;;;20.90;101512.00;;;;2074364;28;20210;-47
2022/05/09 01:50:30;;;;;;;3.92;3.55;;;;;20.90;101516.00;;;;2070927;28;20298;-47
2022/05/09 01:51:31;;;;;;;4.53;3.40;;;;;20.90;101525.00;;;;2071349;28;20570;-46
2022/05/09 01:52:31;;;;;;;5.70;3.40;;;;;20.90;101524.00;;;;2071726;28;20705;-48
2022/05/09 01:53:32;;;;;;;3.30;2.83;;;;;20.90;101520.00;;;;2073258;28;20232;-48
2022/05/09 01:54:33;;;;;;;3.37;2.63;;;;;20.80;101518.00;;;;2078803;28;20245;-47
2022/05/09 01:55:33;;;;;;;5.30;3.53;;;;;20.90;101520.00;;;;2078389;28;20590;-46
2022/05/09 01:56:35;;;;;;;3.70;3.07;;;;;20.90;101515.00;;;;2078054;28;20217;-48
2022/05/09 01:57:36;;;;;;;5.13;3.28;;;;;20.80;101517.00;;;;2078393;28;20292;-47
2022/05/09 01:58:36;;;;;;;3.67;3.23;;;;;20.80;101517.00;;;;2078851;28;20271;-47
2022/05/09 01:59:38;;;;;;;4.63;3.63;;;;;20.90;101515.00;;;;2079375;28;20213;-46
2022/05/09 02:00:38;;;;;;;3.38;3.05;;;;;20.90;101515.00;;;;2079387;28;20205;-47
2022/05/09 02:01:46;;;;;;;3.60;3.03;;;;;20.80;101513.00;;;;2079242;28;20316;-46
2022/05/09 02:02:47;;;;;;;3.90;3.50;;;;;20.80;101523.00;;;;2078753;28;20218;-47
2022/05/09 02:03:47;;;;;;;5.60;3.37;;;;;20.80;101522.00;;;;2078635;28;20701;-47
2022/05/09 02:04:48;;;;;;;5.23;3.40;;;;;20.80;101528.00;;;;2078754;28;20213;-47
2022/05/09 02:05:48;;;;;;;5.13;2.83;;;;;20.80;101523.00;;;;2078494;28;20554;-48
2022/05/09 02:06:48;;;;;;;4.40;3.03;;;;;20.80;101522.00;;;;2071300;28;20214;-47
2022/05/09 02:07:49;;;;;;;3.80;3.13;;;;;20.80;101520.00;;;;2070926;28;20218;-47
2022/05/09 02:08:49;;;;;;;4.30;3.27;;;;;20.80;101522.00;;;;2071124;28;20352;-47
2022/05/09 02:09:49;;;;;;;3.87;2.87;;;;;20.80;101530.00;;;;2070394;28;20222;-46
2022/05/09 02:10:50;;;;;;;5.63;3.03;;;;;20.80;101534.00;;;;2069350;28;20222;-47
2022/05/09 02:11:50;;;;;;;3.73;3.07;;;;;20.80;101528.00;;;;2070910;28;20230;-48
2022/05/09 02:12:51;;;;;;;5.70;3.00;;;;;20.80;101521.00;;;;2070899;28;20684;-47
2022/05/09 02:13:51;;;;;;;4.10;3.03;;;;;20.80;101525.00;;;;2070723;28;20222;-47
2022/05/09 02:14:51;;;;;;;3.83;3.10;;;;;20.80;101525.00;;;;2070519;28;20226;-47
2022/05/09 02:15:52;;;;;;;5.00;3.30;;;;;20.80;101517.00;;;;2070135;28;20235;-47
2022/05/09 02:16:52;;;;;;;4.40;3.40;;;;;20.80;101509.00;;;;2071013;28;20344;-46
2022/05/09 02:17:52;;;;;;;3.97;3.10;;;;;20.80;101515.00;;;;2071275;28;20372;-49
2022/05/09 02:18:53;;;;;;;3.90;3.20;;;;;20.80;101520.00;;;;2071497;28;20284;-48
2022/05/09 02:19:55;;;;;;;5.37;3.27;;;;;20.80;101520.00;;;;2075822;28;20257;-47
2022/05/09 02:20:55;;;;;;;4.32;3.03;;;;;20.80;101521.00;;;;2079643;28;20233;-47
2022/05/09 02:21:55;;;;;;;4.70;3.30;;;;;20.80;101523.00;;;;2079720;28;20218;-47
2022/05/09 02:22:56;;;;;;;3.60;3.20;;;;;20.80;101523.00;;;;2079537;28;20260;-47
2022/05/09 02:23:56;;;;;;;5.00;3.60;;;;;20.80;101520.00;;;;2079761;28;20210;-47
2022/05/09 02:24:56;;;;;;;4.87;3.27;;;;;20.80;101518.00;;;;2079518;28;20267;-46
2022/05/09 02:25:57;;;;;;;4.37;3.27;;;;;20.80;101515.00;;;;2072126;28;20243;-48
2022/05/09 02:26:57;;;;;;;3.90;3.07;;;;;20.80;101521.00;;;;2071302;28;20260;-47
2022/05/09 02:28:02;;;;;;;4.63;3.47;;;;;20.80;101511.00;;;;2071183;28;20221;-47
2022/05/09 02:29:03;;;;;;;5.25;2.97;;;;;20.80;101519.00;;;;2071289;28;20237;-46
2022/05/09 02:30:05;;;;;;;5.87;3.30;;;;;20.80;101525.00;;;;2071264;28;20210;-46
2022/05/09 02:31:05;;;;;;;5.13;2.70;;;;;20.80;101514.00;;;;2071781;28;21207;-48
2022/05/09 02:32:06;;;;;;;3.80;2.97;;;;;20.80;101520.00;;;;2079588;28;20309;-48
2022/05/09 02:33:07;;;;;;;4.32;3.58;;;;;20.80;101515.00;;;;2079333;28;20224;-47
2022/05/09 02:34:08;;;;;;;3.43;3.10;;;;;20.80;101512.00;;;;2079267;28;20601;-48
2022/05/09 02:35:08;;;;;;;4.32;3.92;;;;;20.80;101522.00;;;;2078613;28;20472;-46
2022/05/09 02:36:09;;;;;;;3.70;3.00;;;;;20.80;101508.00;;;;2077812;28;20206;-48
2022/05/09 02:37:09;;;;;;;4.07;2.93;;;;;20.80;101512.00;;;;2079345;28;20249;-48
2022/05/09 02:38:10;;;;;;;3.20;3.00;;;;;20.80;101517.00;;;;2079342;28;20228;-47
2022/05/09 02:39:10;;;;;;;5.17;3.40;;;;;20.80;101511.00;;;;2079004;28;20210;-46
2022/05/09 02:40:10;;;;;;;4.93;2.83;;;;;20.80;101503.00;;;;2078541;28;20221;-46
2022/05/09 02:41:11;;;;;;;4.20;3.13;;;;;20.80;101513.00;;;;2078777;28;20769;-46
2022/05/09 02:42:11;;;;;;;3.80;2.80;;;;;20.80;101509.00;;;;2079372;28;20760;-47
2022/05/09 02:43:11;;;;;;;5.23;2.87;;;;;20.80;101511.00;;;;2078143;28;20682;-46
2022/05/09 02:44:12;;;;;;;5.60;3.33;;;;;20.80;101508.00;;;;2079359;28;20213;-47
2022/05/09 02:45:13;;;;;;;3.58;2.78;;;;;20.80;101508.00;;;;2079496;28;20217;-47
2022/05/09 02:46:14;;;;;;;4.07;3.07;;;;;20.80;101516.00;;;;2078705;28;20287;-47
2022/05/09 02:47:14;;;;;;;4.70;3.50;;;;;20.80;101517.00;;;;2079077;28;20678;-47
2022/05/09 02:48:15;;;;;;;3.60;3.27;;;;;20.80;101513.00;;;;2079143;28;20226;-48
2022/05/09 02:49:15;;;;;;;3.70;2.87;;;;;20.80;101513.00;;;;2079399;28;20213;-46
2022/05/09 02:50:16;;;;;;;3.93;3.33;;;;;20.80;101519.00;;;;2079192;28;20591;-48
2022/05/09 02:51:17;;;;;;;4.97;2.77;;;;;20.80;101515.00;;;;2079432;28;20305;-48
2022/05/09 02:52:17;;;;;;;3.80;2.83;;;;;20.80;101507.00;;;;2074026;28;20224;-46
2022/05/09 02:53:18;;;;;;;3.47;2.80;;;;;20.80;101509.00;;;;2070374;28;20461;-46
2022/05/09 02:54:18;;;;;;;3.83;3.33;;;;;20.50;101512.00;;;;2071065;28;20445;-47
2022/05/09 02:55:19;;;;;;;3.53;3.20;;;;;20.80;101520.00;;;;2070745;28;20222;-49
2022/05/09 02:56:19;;;;;;;3.30;2.97;;;;;20.70;101516.00;;;;2071050;28;20268;-48
2022/05/09 02:57:20;;;;;;;5.20;3.20;;;;;20.80;101510.00;;;;2070974;28;20458;-47
2022/05/09 02:58:20;;;;;;;4.03;2.90;;;;;20.70;101520.00;;;;2069620;28;20219;-47
2022/05/09 02:59:21;;;;;;;5.33;3.33;;;;;20.80;101513.00;;;;2074418;28;20244;-48
2022/05/09 03:00:23;;;;;;;4.10;2.93;;;;;20.80;101506.00;;;;2079220;28;20228;-49
2022/05/09 03:01:23;;;;;;;2.80;2.45;;;;;20.80;101511.00;;;;2079010;28;20221;-47
2022/05/09 03:02:24;;;;;;;3.30;2.70;;;;;20.70;101505.00;;;;2079312;28;20236;-46
2022/05/09 03:04:44;;;;;;;3.63;3.20;;;;;20.80;101504.00;;;;2078910;28;20221;-48
2022/05/09 03:05:45;;;;;;;3.67;2.67;;;;;20.80;101504.00;;;;2077981;28;20300;-48
2022/05/09 03:06:46;;;;;;;3.80;3.37;;;;;20.70;101504.00;;;;2071279;28;20214;-48
2022/05/09 03:07:46;;;;;;;4.20;2.90;;;;;20.80;101498.00;;;;2070992;28;20221;-47
2022/05/09 03:08:47;;;;;;;3.63;3.27;;;;;20.70;101494.00;;;;2074367;28;20233;-47
2022/05/09 03:09:48;;;;;;;4.60;3.00;;;;;20.70;101499.00;;;;2071399;28;20222;-47
2022/05/09 03:10:48;;;;;;;3.83;3.10;;;;;20.70;101503.00;;;;2070449;28;20305;-48
2022/05/09 03:11:49;;;;;;;3.80;2.83;;;;;20.70;101505.00;;;;2070132;28;20234;-46
2022/05/09 03:12:50;;;;;;;3.33;3.00;;;;;20.70;101501.00;;;;2070994;28;20304;-46
2022/05/09 03:13:50;;;;;;;3.63;3.03;;;;;20.70;101511.00;;;;2070798;28;20218;-46
2022/05/09 03:14:51;;;;;;;4.63;3.00;;;;;20.70;101504.00;;;;2070909;28;20226;-46
2022/05/09 03:15:51;;;;;;;5.90;3.20;;;;;20.70;101503.00;;;;2070273;28;20217;-46
2022/05/09 03:16:51;;;;;;;3.83;3.40;;;;;20.70;101506.00;;;;2070910;28;20590;-47
2022/05/09 03:17:52;;;;;;;3.43;3.03;;;;;20.70;101510.00;;;;2069772;28;20304;-47
2022/05/09 03:18:52;;;;;;;3.17;2.80;;;;;20.70;101507.00;;;;2070893;28;20217;-46
2022/05/09 03:19:53;;;;;;;4.63;2.97;;;;;20.70;101502.00;;;;2071097;28;20686;-47
2022/05/09 03:20:54;;;;;;;3.35;2.70;;;;;20.70;101507.00;;;;2070923;28;20784;-47
2022/05/09 03:21:54;;;;;;;3.13;2.80;;;;;20.70;101503.00;;;;2070352;28;20276;-47
2022/05/09 03:22:55;;;;;;;3.70;3.00;;;;;20.70;101507.00;;;;2070074;28;20272;-48
2022/05/09 03:23:55;;;;;;;3.60;3.00;;;;;20.70;101506.00;;;;2072752;28;20301;-50
2022/05/09 03:24:55;;;;;;;5.43;3.30;;;;;20.70;101498.00;;;;2076425;28;20218;-50
2022/05/09 03:25:56;;;;;;;3.50;3.20;;;;;20.70;101506.00;;;;2070023;28;20218;-50
2022/05/09 03:26:56;;;;;;;3.53;2.70;;;;;20.70;101501.00;;;;2077722;28;20285;-47
2022/05/09 03:27:57;;;;;;;3.30;3.00;;;;;20.70;101508.00;;;;2076799;28;20220;-48
2022/05/09 03:28:57;;;;;;;4.10;3.30;;;;;20.70;101497.00;;;;2070159;28;20653;-47
2022/05/09 03:29:57;;;;;;;3.93;2.80;;;;;20.70;101496.00;;;;2070812;28;20246;-47
2022/05/09 03:30:59;;;;;;;3.43;2.83;;;;;20.70;101494.00;;;;2071058;28;20232;-46
2022/05/09 03:32:00;;;;;;;4.47;3.08;;;;;20.70;101493.00;;;;2070620;28;20206;-47
2022/05/09 03:33:00;;;;;;;2.72;2.53;;;;;20.70;101506.00;;;;2077069;28;20217;-47
2022/05/09 03:34:01;;;;;;;5.23;3.43;;;;;20.70;101500.00;;;;2079081;28;20264;-48
2022/05/09 03:35:05;;;;;;;4.23;2.87;;;;;20.70;101498.00;;;;2078874;28;20234;-47
2022/05/09 03:36:05;;;;;;;3.72;2.88;;;;;20.70;101496.00;;;;2078494;28;20214;-47
2022/05/09 03:37:06;;;;;;;3.63;2.90;;;;;20.70;101500.00;;;;2078702;28;20580;-47
2022/05/09 03:38:06;;;;;;;3.70;2.80;;;;;20.70;101506.00;;;;2079001;28;20219;-46
2022/05/09 03:39:07;;;;;;;4.03;3.20;;;;;20.70;101494.00;;;;2074521;28;20746;-48
2022/05/09 03:40:09;;;;;;;4.53;2.80;;;;;20.70;101501.00;;;;2070700;28;20589;-47
2022/05/09 03:41:09;;;;;;;9.45;2.83;;;;;20.70;101496.00;;;;2070153;28;20293;-48
2022/05/09 03:42:09;;;;;;;3.57;2.70;;;;;20.70;101503.00;;;;2069953;28;20222;-47
2022/05/09 03:43:11;;;;;;;3.17;2.73;;;;;20.70;101495.00;;;;2071021;28;20214;-48
2022/05/09 03:44:12;;;;;;;5.35;3.35;;;;;20.70;101500.00;;;;2070429;28;20210;-47
2022/05/09 03:45:12;;;;;;;4.53;3.20;;;;;20.70;101498.00;;;;2070966;28;20300;-47
2022/05/09 03:46:13;;;;;;;2.97;2.77;;;;;20.70;101503.00;;;;2070311;28;20209;-47
2022/05/09 03:47:13;;;;;;;3.50;2.73;;;;;20.70;101503.00;;;;2070654;28;20228;-47
2022/05/09 03:48:13;;;;;;;4.47;3.00;;;;;20.70;101510.00;;;;2071235;28;20214;-48
2022/05/09 03:49:14;;;;;;;2.80;2.50;;;;;20.70;101505.00;;;;2076039;28;20272;-47
2022/05/09 03:50:14;;;;;;;4.50;3.20;;;;;20.70;101506.00;;;;2070711;28;20215;-47
2022/05/09 03:51:14;;;;;;;3.00;2.60;;;;;20.70;101506.00;;;;2070632;28;20240;-47
2022/05/09 03:52:15;;;;;;;5.43;3.70;;;;;20.70;101500.00;;;;2070629;28;20229;-47
2022/05/09 03:53:15;;;;;;;4.20;3.17;;;;;20.70;101498.00;;;;2070674;28;20283;-48
2022/05/09 03:54:16;;;;;;;3.40;3.03;;;;;20.70;101502.00;;;;2070527;28;20237;-48
2022/05/09 03:55:16;;;;;;;3.73;2.90;;;;;20.70;101497.00;;;;2070664;28;20242;-47
2022/05/09 03:56:16;;;;;;;3.20;2.90;;;;;20.60;101495.00;;;;2077957;28;20213;-48
2022/05/09 03:57:17;;;;;;;3.43;3.00;;;;;20.60;101494.00;;;;2078273;28;20272;-48
2022/05/09 03:58:18;;;;;;;3.60;2.80;;;;;20.70;101496.00;;;;2077949;28;20226;-47
2022/05/09 03:59:18;;;;;;;3.10;2.80;;;;;20.70;101497.00;;;;2078049;28;20271;-47
2022/05/09 04:00:21;;;;;;;4.43;3.30;;;;;20.60;101499.00;;;;2075275;28;20694;-47
2022/05/09 04:01:22;;;;;;;4.18;3.42;;;;;20.60;101494.00;;;;2072543;28;20707;-47
2022/05/09 04:02:22;;;;;;;4.30;2.73;;;;;20.60;101501.00;;;;2070989;28;20226;-48
2022/05/09 04:03:22;;;;;;;3.83;2.90;;;;;20.60;101495.00;;;;2071181;28;20690;-48
2022/05/09 04:04:23;;;;;;;3.60;3.10;;;;;20.70;101502.00;;;;2078362;28;20712;-48
2022/05/09 04:05:23;;;;;;;5.17;3.33;;;;;20.70;101501.00;;;;2072021;28;20324;-48
2022/05/09 04:06:23;;;;;;;3.90;2.77;;;;;20.60;101497.00;;;;2070846;28;20218;-48
2022/05/09 04:07:24;;;;;;;3.47;2.93;;;;;20.60;101498.00;;;;2070685;28;20300;-49
2022/05/09 04:08:24;;;;;;;3.30;3.00;;;;;20.60;101500.00;;;;2077581;28;20226;-48
2022/05/09 04:09:24;;;;;;;4.53;2.60;;;;;20.60;101503.00;;;;2073870;28;20225;-48
2022/05/09 04:10:27;;;;;;;3.23;2.73;;;;;20.60;101494.00;;;;2070354;28;20218;-48
2022/05/09 04:11:28;;;;;;;3.75;2.90;;;;;20.60;101497.00;;;;2069709;28;20218;-49
2022/05/09 04:12:28;;;;;;;3.60;3.00;;;;;20.60;101495.00;;;;2069843;28;20229;-49
2022/05/09 04:13:28;;;;;;;3.47;2.77;;;;;20.60;101498.00;;;;2070008;28;20214;-49
2022/05/09 04:17:08;;;;;;;3.63;2.85;;;;;20.60;101494.00;;;;2077381;28;20609;-47
2022/05/09 04:18:09;;;;;;;3.33;3.00;;;;;20.60;101507.00;;;;2070339;28;20426;-49
2022/05/09 04:19:10;;;;;;;3.33;2.87;;;;;20.60;101496.00;;;;2078503;28;20460;-48
2022/05/09 04:20:11;;;;;;;3.57;2.40;;;;;20.60;101496.00;;;;2077026;28;20240;-48
2022/05/09 04:21:12;;;;;;;3.43;2.80;;;;;20.60;101499.00;;;;2073271;28;20480;-48
2022/05/09 04:22:12;;;;;;;4.20;3.17;;;;;20.60;101499.00;;;;2078877;28;20209;-49
2022/05/09 04:23:13;;;;;;;3.23;2.93;;;;;20.60;101498.00;;;;2078658;28;20698;-48
2022/05/09 04:24:13;;;;;;;4.43;2.63;;;;;20.60;101489.00;;;;2077763;28;20209;-48
2022/05/09 04:25:15;;;;;;;5.40;3.20;;;;;20.60;101497.00;;;;2075269;28;20264;-48
2022/05/09 04:26:16;;;;;;;5.85;2.70;;;;;20.60;101507.00;;;;2069903;28;20206;-48
2022/05/09 04:27:17;;;;;;;4.28;2.90;;;;;20.70;101489.00;;;;2070279;28;20206;-48
2022/05/09 04:28:19;;;;;;;4.30;3.00;;;;;20.60;101489.00;;;;2070513;28;20694;-49
2022/05/09 04:29:19;;;;;;;2.95;2.65;;;;;20.60;101494.00;;;;2069676;28;20214;-49
2022/05/09 04:30:20;;;;;;;3.47;3.17;;;;;20.60;101488.00;;;;2074216;28;20690;-47
2022/05/09 04:31:20;;;;;;;2.93;2.60;;;;;20.60;101495.00;;;;2075013;28;20300;-48
2022/05/09 04:32:20;;;;;;;2.63;2.43;;;;;20.60;101493.00;;;;2078566;28;20736;-48
2022/05/09 04:33:21;;;;;;;3.70;2.77;;;;;20.60;101490.00;;;;2078317;28;20214;-48
2022/05/09 04:34:21;;;;;;;5.80;3.20;;;;;20.60;101497.00;;;;2074512;28;20241;-47
2022/05/09 04:35:21;;;;;;;3.80;2.93;;;;;20.60;101498.00;;;;2069637;28;20229;-47
2022/05/09 04:36:22;;;;;;;3.80;3.03;;;;;20.60;101498.00;;;;2069713;28;20705;-48
2022/05/09 04:37:23;;;;;;;4.30;2.57;;;;;20.60;101488.00;;;;2069842;28;20750;-47
2022/05/09 04:38:24;;;;;;;3.25;2.95;;;;;20.60;101492.00;;;;2073739;28;20216;-49
2022/05/09 04:39:24;;;;;;;3.70;2.77;;;;;20.60;101490.00;;;;2074065;28;20833;-48
2022/05/09 04:40:35;;;;;;;4.20;2.93;;;;;20.60;101490.00;;;;2075578;28;20209;-48
2022/05/09 04:41:36;;;;;;;3.38;2.50;;;;;20.50;101497.00;;;;2078502;28;20793;-49
2022/05/09 04:42:36;;;;;;;3.77;3.10;;;;;20.60;101491.00;;;;2074376;28;20225;-47
2022/05/09 04:43:37;;;;;;;4.03;3.27;;;;;20.60;101489.00;;;;2075724;28;20456;-55
2022/05/09 04:44:37;;;;;;;4.27;3.10;;;;;20.60;101493.00;;;;2078355;28;20312;-51
2022/05/09 04:45:38;;;;;;;3.80;2.70;;;;;20.60;101494.00;;;;2077976;28;20437;-49
2022/05/09 04:46:39;;;;;;;2.87;2.57;;;;;20.60;101490.00;;;;2078731;28;20221;-51
2022/05/09 04:47:40;;;;;;;3.47;3.10;;;;;20.60;101492.00;;;;2075297;28;20356;-48
2022/05/09 04:48:42;;;;;;;3.10;2.73;;;;;20.60;101494.00;;;;2070239;28;20233;-48
2022/05/09 04:49:42;;;;;;;3.42;2.65;;;;;20.60;101487.00;;;;2069999;28;21019;-48
2022/05/09 04:50:42;;;;;;;4.20;3.50;;;;;20.60;101488.00;;;;2070706;28;20214;-49
2022/05/09 04:51:43;;;;;;;3.60;3.30;;;;;20.60;101488.00;;;;2076097;28;20217;-47
2022/05/09 04:52:43;;;;;;;3.33;2.67;;;;;20.60;101486.00;;;;2078603;28;20213;-48
2022/05/09 04:53:43;;;;;;;3.07;2.77;;;;;20.60;101490.00;;;;2078404;28;20216;-48
2022/05/09 04:54:44;;;;;;;3.20;2.90;;;;;20.60;101484.00;;;;2077539;28;20217;-47
2022/05/09 04:55:44;;;;;;;4.50;3.20;;;;;20.60;101491.00;;;;2075598;28;20225;-48
2022/05/09 04:56:44;;;;;;;3.00;2.70;;;;;20.60;101486.00;;;;2076670;28;20228;-48
2022/05/09 04:57:46;;;;;;;4.00;3.03;;;;;20.60;101486.00;;;;2074794;28;20219;-48
2022/05/09 04:58:47;;;;;;;3.40;2.75;;;;;20.60;101490.00;;;;2069710;28;20274;-48
2022/05/09 04:59:47;;;;;;;4.97;2.90;;;;;20.60;101489.00;;;;2068988;28;20750;-48
2022/05/09 05:00:48;;;;;;;3.30;3.00;;;;;20.60;101483.00;;;;2071519;28;20210;-48
2022/05/09 05:01:49;;;;;;;3.30;3.00;;;;;20.60;101495.00;;;;2070626;28;20679;-46
2022/05/09 05:02:49;;;;;;;3.90;3.50;;;;;20.60;101493.00;;;;2070137;28;20218;-47
2022/05/09 05:03:49;;;;;;;3.90;3.13;;;;;20.60;101483.00;;;;2068816;28;20269;-49
2022/05/09 05:04:50;;;;;;;3.43;3.13;;;;;20.60;101486.00;;;;2070275;28;20222;-47
2022/05/09 05:05:53;;;;;;;4.33;3.07;;;;;20.50;101485.00;;;;2072933;28;20225;-47
2022/05/09 05:06:53;;;;;;;3.20;2.90;;;;;20.60;101488.00;;;;2078517;28;20214;-48
2022/05/09 05:07:54;;;;;;;6.80;3.20;;;;;20.60;101485.00;;;;2078406;28;20213;-47
2022/05/09 05:08:54;;;;;;;3.90;2.90;;;;;20.60;101491.00;;;;2077815;28;20257;-47
2022/05/09 05:09:54;;;;;;;3.10;2.63;;;;;20.60;101485.00;;;;2070801;28;20241;-48